logo
Rechercher aéroport 
image banner adimage banner adimage banner ad
image banner ad

FMMR - Morafenobe

Situé à , Madagascar

ICAO - FMMR, IATA - TVA

Données fournies par Airmate  

Information générale

Coordonnées: S17°51'1" E44°55'15"
Élévation : 748 feet MSL.
 
Voir autres Aéroports à Mahajanga

Données opérationnelles

Special qualification required
Heure actuelle UTC:
Heure actuelle locale:
Météo à : - ( 0 km )
METAR: MMMM 231712Z 08003KT 7SM SKC 23/01 A3026 RMK HZY CI
Voir NOTAMs / SUP AIP / TFR affectant cet aéroport [VIEW]
Fréquences de communication: [VIEW]

Pistes:

Coordonnées de l'aéroport

Adresse: Madagascar

Vue satellite de FMMR